Time,TemperatureF,DewpointF,PressureIn,WindDirection,WindDirectionDegrees,WindSpeedMPH,WindSpeedGustMPH,Humidity,HourlyPrecipIn,Conditions,Clouds,dailyrainin,SoftwareType,DateUTC
2013-06-08 00:02:00,64.5,62.7,29.87,North,349,0.0,0.0,94,0.00,BKN,FEW,0.00,WeatherDisplay:10.37,2013-06-08 05:02:00,
2013-06-08 00:07:00,64.5,63.0,29.87,North,349,0.0,0.0,95,0.00,BKN,FEW,0.00,WeatherDisplay:10.37,2013-06-08 05:07:00,
2013-06-08 00:12:00,64.5,63.0,29.87,North,349,0.0,0.0,95,0.00,BKN,FEW,0.00,WeatherDisplay:10.37,2013-06-08 05:12:00,
2013-06-08 00:17:00,64.4,62.9,29.86,North,349,0.0,0.0,95,0.00,BKN,FEW,0.00,WeatherDisplay:10.37,2013-06-08 05:17:00,
2013-06-08 00:22:00,64.5,63.0,29.86,North,349,0.0,0.0,95,0.00,BKN,FEW,0.00,WeatherDisplay:10.37,2013-06-08 05:22:00,
2013-06-08 00:27:00,64.6,63.1,29.87,North,349,0.0,0.0,95,0.00,BKN,FEW,0.00,WeatherDisplay:10.37,2013-06-08 05:27:00,
2013-06-08 00:32:00,64.5,63.0,29.87,North,349,0.0,0.0,95,0.00,BKN,FEW,0.00,WeatherDisplay:10.37,2013-06-08 05:32:00,
2013-06-08 00:37:00,64.4,62.9,29.87,North,349,0.0,0.0,95,0.00,SCT,FEW,0.00,WeatherDisplay:10.37,2013-06-08 05:37:00,
2013-06-08 00:42:00,64.2,62.7,29.87,North,349,0.0,0.0,95,0.00,SCT,FEW,0.00,WeatherDisplay:10.37,2013-06-08 05:42:00,
2013-06-08 00:48:00,64.1,62.6,29.87,North,349,0.0,0.0,95,0.00,SCT,FEW,0.00,WeatherDisplay:10.37,2013-06-08 05:48:00,
2013-06-08 00:53:00,64.0,62.5,29.86,North,349,0.0,0.0,95,0.00,SCT,FEW,0.00,WeatherDisplay:10.37,2013-06-08 05:53:00,
2013-06-08 00:58:00,63.9,62.4,29.86,North,349,0.0,0.0,95,0.00,SCT,FEW,0.00,WeatherDisplay:10.37,2013-06-08 05:58:00,
2013-06-08 01:03:00,63.8,62.3,29.86,North,349,0.0,0.0,95,0.00,BKN,FEW,0.00,WeatherDisplay:10.37,2013-06-08 06:03:00,
2013-06-08 01:08:00,63.7,62.2,29.86,North,349,0.0,0.0,95,0.00,BKN,FEW,0.00,WeatherDisplay:10.37,2013-06-08 06:08:00,
2013-06-08 01:13:00,63.6,62.1,29.86,North,349,0.0,0.0,95,0.00,BKN,FEW,0.00,WeatherDisplay:10.37,2013-06-08 06:13:00,
2013-06-08 01:18:00,63.6,62.4,29.86,North,349,0.0,0.0,96,0.00,BKN,FEW,0.00,WeatherDisplay:10.37,2013-06-08 06:18:00,
2013-06-08 01:23:00,63.5,62.0,29.86,North,349,0.0,0.0,95,0.00,BKN,FEW,0.00,WeatherDisplay:10.37,2013-06-08 06:23:00,
2013-06-08 01:28:00,63.5,62.0,29.86,North,349,0.0,0.0,95,0.00,BKN,FEW,0.00,WeatherDisplay:10.37,2013-06-08 06:28:00,
2013-06-08 01:33:00,63.5,62.0,29.86,North,349,0.0,0.0,95,0.00,BKN,FEW,0.00,WeatherDisplay:10.37,2013-06-08 06:33:00,
2013-06-08 01:38:00,63.5,62.0,29.86,North,349,0.0,0.0,95,0.00,BKN,FEW,0.00,WeatherDisplay:10.37,2013-06-08 06:38:00,
2013-06-08 01:43:00,63.4,61.9,29.86,North,349,0.0,0.0,95,0.00,BKN,FEW,0.00,WeatherDisplay:10.37,2013-06-08 06:43:00,
2013-06-08 01:48:00,63.3,61.8,29.86,North,349,0.0,0.0,95,0.00,BKN,FEW,0.00,WeatherDisplay:10.37,2013-06-08 06:48:00,
2013-06-08 01:53:00,63.2,61.7,29.86,North,349,0.0,0.0,95,0.00,BKN,FEW,0.00,WeatherDisplay:10.37,2013-06-08 06:53:00,
2013-06-08 01:58:00,63.1,61.6,29.86,North,349,0.0,0.0,95,0.00,BKN,FEW,0.00,WeatherDisplay:10.37,2013-06-08 06:58:00,
2013-06-08 02:03:00,62.9,61.4,29.87,North,349,0.0,0.0,95,0.00,BKN,FEW,0.00,WeatherDisplay:10.37,2013-06-08 07:03:00,
2013-06-08 02:08:00,62.8,61.3,29.86,North,349,0.0,0.0,95,0.00,BKN,FEW,0.00,WeatherDisplay:10.37,2013-06-08 07:08:00,
2013-06-08 02:13:00,62.8,61.6,29.87,North,349,0.0,0.0,96,0.00,BKN,FEW,0.00,WeatherDisplay:10.37,2013-06-08 07:13:00,
2013-06-08 02:18:00,62.9,61.7,29.87,North,349,0.0,0.0,96,0.00,BKN,FEW,0.00,WeatherDisplay:10.37,2013-06-08 07:18:00,
2013-06-08 02:23:00,62.9,61.7,29.87,North,349,0.0,0.0,96,0.00,CLR,FEW,0.00,WeatherDisplay:10.37,2013-06-08 07:23:00,
2013-06-08 02:28:00,62.9,61.7,29.87,North,349,0.0,0.0,96,0.00,CLR,FEW,0.00,WeatherDisplay:10.37,2013-06-08 07:28:00,
2013-06-08 02:33:00,62.9,61.7,29.87,North,349,0.0,0.0,96,0.00,CLR,FEW,0.00,WeatherDisplay:10.37,2013-06-08 07:33:00,
2013-06-08 02:38:00,62.8,61.3,29.87,North,349,0.0,0.0,95,0.00,CLR,FEW,0.00,WeatherDisplay:10.37,2013-06-08 07:38:00,
2013-06-08 02:43:00,62.7,61.5,29.87,North,349,0.0,0.0,96,0.00,CLR,FEW,0.00,WeatherDisplay:10.37,2013-06-08 07:43:00,
2013-06-08 02:48:00,62.6,61.4,29.87,North,349,0.0,0.0,96,0.00,CLR,FEW,0.00,WeatherDisplay:10.37,2013-06-08 07:48:00,
2013-06-08 02:53:00,62.5,61.3,29.87,North,349,0.0,0.0,96,0.00,CLR,FEW,0.00,WeatherDisplay:10.37,2013-06-08 07:53:00,
2013-06-08 02:58:00,62.4,61.2,29.87,North,349,0.0,0.0,96,0.00,CLR,FEW,0.00,WeatherDisplay:10.37,2013-06-08 07:58:00,
2013-06-08 03:03:00,62.3,61.1,29.87,North,349,0.0,0.0,96,0.00,CLR,FEW,0.00,WeatherDisplay:10.37,2013-06-08 08:03:00,
2013-06-08 03:08:00,62.3,61.1,29.87,North,349,0.0,0.0,96,0.00,CLR,FEW,0.00,WeatherDisplay:10.37,2013-06-08 08:08:00,
2013-06-08 03:13:00,62.2,61.0,29.87,North,349,0.0,0.0,96,0.00,CLR,FEW,0.00,WeatherDisplay:10.37,2013-06-08 08:13:00,
2013-06-08 03:18:00,62.2,61.0,29.87,North,349,0.0,0.0,96,0.00,CLR,FEW,0.00,WeatherDisplay:10.37,2013-06-08 08:18:00,
2013-06-08 03:23:00,62.2,61.0,29.88,North,349,0.0,0.0,96,0.00,CLR,FEW,0.00,WeatherDisplay:10.37,2013-06-08 08:23:00,
2013-06-08 03:28:00,62.2,61.0,29.88,North,349,0.0,0.0,96,0.00,CLR,FEW,0.00,WeatherDisplay:10.37,2013-06-08 08:28:00,
2013-06-08 03:33:00,62.2,61.0,29.88,North,349,0.0,0.0,96,0.00,CLR,FEW,0.00,WeatherDisplay:10.37,2013-06-08 08:33:00,
2013-06-08 03:38:00,62.2,61.0,29.88,North,349,0.0,0.0,96,0.00,CLR,FEW,0.00,WeatherDisplay:10.37,2013-06-08 08:38:00,
2013-06-08 03:43:00,62.2,61.0,29.88,North,349,0.0,0.0,96,0.00,CLR,FEW,0.00,WeatherDisplay:10.37,2013-06-08 08:43:00,
2013-06-08 03:48:00,62.1,60.9,29.88,North,349,0.0,0.0,96,0.00,CLR,FEW,0.00,WeatherDisplay:10.37,2013-06-08 08:48:00,
2013-06-08 03:54:00,62.0,60.8,29.88,North,349,0.0,0.0,96,0.00,CLR,FEW,0.00,WeatherDisplay:10.37,2013-06-08 08:54:00,
2013-06-08 03:59:00,62.0,60.8,29.88,North,349,0.0,0.0,96,0.00,CLR,FEW,0.00,WeatherDisplay:10.37,2013-06-08 08:59:00,
2013-06-08 04:04:00,61.9,60.7,29.89,North,349,0.0,0.0,96,0.00,CLR,FEW,0.00,WeatherDisplay:10.37,2013-06-08 09:04:00,
2013-06-08 04:09:00,61.8,60.6,29.89,North,349,0.0,0.0,96,0.00,CLR,FEW,0.00,WeatherDisplay:10.37,2013-06-08 09:09:00,
2013-06-08 04:14:00,61.8,60.6,29.89,North,349,0.0,0.0,96,0.00,CLR,FEW,0.00,WeatherDisplay:10.37,2013-06-08 09:14:00,
2013-06-08 04:19:00,61.7,60.5,29.89,North,349,0.0,0.0,96,0.00,CLR,FEW,0.00,WeatherDisplay:10.37,2013-06-08 09:19:00,
2013-06-08 04:24:00,61.5,60.3,29.89,North,349,0.0,0.0,96,0.00,CLR,FEW,0.00,WeatherDisplay:10.37,2013-06-08 09:24:00,
2013-06-08 04:29:00,61.4,60.0,29.89,North,349,0.0,0.0,95,0.00,CLR,FEW,0.00,WeatherDisplay:10.37,2013-06-08 09:29:00,
2013-06-08 04:34:00,61.2,60.1,29.89,North,349,0.0,0.0,96,0.00,CLR,FEW,0.00,WeatherDisplay:10.37,2013-06-08 09:34:00,
2013-06-08 04:39:00,61.1,60.0,29.89,North,349,0.0,0.0,96,0.00,CLR,FEW,0.00,WeatherDisplay:10.37,2013-06-08 09:39:00,
2013-06-08 04:44:00,61.2,60.1,29.89,North,349,0.0,0.0,96,0.00,CLR,FEW,0.00,WeatherDisplay:10.37,2013-06-08 09:44:00,
2013-06-08 04:49:00,61.1,60.0,29.89,North,349,0.0,0.0,96,0.00,CLR,FEW,0.00,WeatherDisplay:10.37,2013-06-08 09:49:00,
2013-06-08 04:54:00,61.1,60.0,29.90,North,349,0.0,0.0,96,0.00,CLR,FEW,0.00,WeatherDisplay:10.37,2013-06-08 09:54:00,
2013-06-08 04:59:00,61.0,59.9,29.90,North,349,0.0,0.0,96,0.00,CLR,FEW,0.00,WeatherDisplay:10.37,2013-06-08 09:59:00,
2013-06-08 05:04:00,60.8,59.7,29.90,North,349,0.0,0.0,96,0.00,CLR,FEW,0.00,WeatherDisplay:10.37,2013-06-08 10:04:00,
2013-06-08 05:09:00,60.7,59.6,29.90,North,349,0.0,0.0,96,0.00,CLR,FEW,0.00,WeatherDisplay:10.37,2013-06-08 10:09:00,
2013-06-08 05:14:00,60.7,59.6,29.91,North,349,0.0,0.0,96,0.00,CLR,FEW,0.00,WeatherDisplay:10.37,2013-06-08 10:14:00,
2013-06-08 05:19:00,60.6,59.5,29.90,North,349,0.0,0.0,96,0.00,CLR,FEW,0.00,WeatherDisplay:10.37,2013-06-08 10:19:00,
2013-06-08 05:24:00,60.5,59.4,29.91,North,349,0.0,0.0,96,0.00,CLR,FEW,0.00,WeatherDisplay:10.37,2013-06-08 10:24:00,
2013-06-08 05:29:00,60.4,59.3,29.91,North,349,0.0,0.0,96,0.00,CLR,FEW,0.00,WeatherDisplay:10.37,2013-06-08 10:29:00,
2013-06-08 05:34:00,60.4,59.3,29.91,North,349,0.0,0.0,96,0.00,CLR,FEW,0.00,WeatherDisplay:10.37,2013-06-08 10:34:00,
2013-06-08 05:39:00,60.3,59.2,29.91,North,349,0.0,0.0,96,0.00,CLR,FEW,0.00,WeatherDisplay:10.37,2013-06-08 10:39:00,
2013-06-08 05:44:00,60.2,59.1,29.91,North,349,0.0,0.0,96,0.00,CLR,FEW,0.00,WeatherDisplay:10.37,2013-06-08 10:44:00,
2013-06-08 05:49:00,60.2,59.1,29.92,North,349,0.0,0.0,96,0.00,CLR,FEW,0.00,WeatherDisplay:10.37,2013-06-08 10:49:00,
2013-06-08 05:54:00,60.0,58.9,29.92,North,349,0.0,0.0,96,0.00,CLR,FEW,0.00,WeatherDisplay:10.37,2013-06-08 10:54:00,
2013-06-08 05:59:00,60.0,58.9,29.92,North,349,0.0,0.0,96,0.00,CLR,FEW,0.00,WeatherDisplay:10.37,2013-06-08 10:59:00,
2013-06-08 06:04:00,60.0,58.9,29.92,North,349,0.0,0.0,96,0.00,SCT,FEW,0.00,WeatherDisplay:10.37,2013-06-08 11:04:00,
2013-06-08 06:09:00,60.0,59.1,29.93,North,349,0.0,0.0,97,0.00,SCT,FEW,0.00,WeatherDisplay:10.37,2013-06-08 11:09:00,
2013-06-08 06:14:00,60.1,59.2,29.93,North,349,0.0,0.0,97,0.00,SCT,FEW,0.00,WeatherDisplay:10.37,2013-06-08 11:14:00,
2013-06-08 06:19:00,60.3,59.4,29.92,North,349,0.0,0.0,97,0.00,SCT,FEW,0.00,WeatherDisplay:10.37,2013-06-08 11:19:00,
2013-06-08 06:24:00,60.5,59.6,29.93,North,349,0.0,0.0,97,0.00,SCT,FEW,0.00,WeatherDisplay:10.37,2013-06-08 11:24:00,
2013-06-08 06:29:00,60.7,59.8,29.93,North,349,0.0,0.0,97,0.00,SCT,FEW,0.00,WeatherDisplay:10.37,2013-06-08 11:29:00,
2013-06-08 06:34:00,61.0,60.1,29.93,North,349,0.0,0.0,97,0.00,SCT,FEW,0.00,WeatherDisplay:10.37,2013-06-08 11:34:00,
2013-06-08 06:39:00,61.3,60.4,29.93,North,349,0.0,0.0,97,0.00,SCT,FEW,0.00,WeatherDisplay:10.37,2013-06-08 11:39:00,
2013-06-08 06:44:00,61.6,60.7,29.93,North,349,0.0,0.0,97,0.00,SCT,FEW,0.00,WeatherDisplay:10.37,2013-06-08 11:44:00,
2013-06-08 06:49:00,61.9,61.0,29.93,North,349,0.0,0.0,97,0.00,SCT,FEW,0.00,WeatherDisplay:10.37,2013-06-08 11:49:00,
2013-06-08 06:54:00,62.2,61.3,29.93,North,349,0.0,0.0,97,0.00,SCT,FEW,0.00,WeatherDisplay:10.37,2013-06-08 11:54:00,
2013-06-08 06:59:00,62.4,61.5,29.93,North,349,0.0,0.0,97,0.00,SCT,FEW,0.00,WeatherDisplay:10.37,2013-06-08 11:59:00,
2013-06-08 07:04:00,62.6,61.7,29.93,North,349,0.0,0.0,97,0.00,SCT,FEW,0.00,WeatherDisplay:10.37,2013-06-08 12:04:00,
2013-06-08 07:09:00,63.0,62.1,29.94,North,349,0.0,0.0,97,0.00,SCT,FEW,0.00,WeatherDisplay:10.37,2013-06-08 12:09:00,
2013-06-08 07:14:00,63.4,62.5,29.94,North,349,0.0,0.0,97,0.00,SCT,FEW,0.00,WeatherDisplay:10.37,2013-06-08 12:14:00,
2013-06-08 07:19:00,63.9,63.0,29.94,North,349,0.0,0.0,97,0.00,SCT,FEW,0.00,WeatherDisplay:10.37,2013-06-08 12:19:00,
2013-06-08 07:24:00,64.5,63.6,29.95,North,349,0.0,0.0,97,0.00,FEW,,0.00,WeatherDisplay:10.37,2013-06-08 12:24:00,
2013-06-08 07:29:00,65.1,63.9,29.95,North,349,0.0,0.0,96,0.00,FEW,,0.00,WeatherDisplay:10.37,2013-06-08 12:29:00,
2013-06-08 07:34:00,65.6,64.1,29.95,North,349,0.0,0.0,95,0.00,FEW,,0.00,WeatherDisplay:10.37,2013-06-08 12:34:00,
2013-06-08 07:39:00,66.2,64.7,29.95,North,349,0.0,0.0,95,0.00,FEW,,0.00,WeatherDisplay:10.37,2013-06-08 12:39:00,
2013-06-08 07:44:00,66.5,64.7,29.95,North,349,0.0,0.0,94,0.00,FEW,,0.00,WeatherDisplay:10.37,2013-06-08 12:44:00,
2013-06-08 07:49:00,66.7,64.6,29.95,North,349,0.0,0.0,93,0.00,FEW,,0.00,WeatherDisplay:10.37,2013-06-08 12:49:00,
2013-06-08 07:54:00,66.9,64.8,29.95,North,349,0.0,0.0,93,0.00,FEW,,0.00,WeatherDisplay:10.37,2013-06-08 12:54:00,
2013-06-08 07:59:00,67.6,64.9,29.95,WSW,256,0.0,0.0,91,0.00,FEW,,0.00,WeatherDisplay:10.37,2013-06-08 12:59:00,
2013-06-08 08:04:00,68.0,65.3,29.96,WSW,241,0.0,0.0,91,0.00,CLR,FEW,0.00,WeatherDisplay:10.37,2013-06-08 13:04:00,
2013-06-08 08:09:00,68.5,65.4,29.96,SW,221,0.0,0.0,90,0.00,CLR,FEW,0.00,WeatherDisplay:10.37,2013-06-08 13:09:00,
2013-06-08 08:14:00,68.9,65.5,29.96,SW,221,0.0,0.0,89,0.00,CLR,FEW,0.00,WeatherDisplay:10.37,2013-06-08 13:14:00,
2013-06-08 08:19:00,69.5,65.8,29.96,SW,221,0.0,0.0,88,0.00,CLR,FEW,0.00,WeatherDisplay:10.37,2013-06-08 13:19:00,
2013-06-08 08:24:00,69.8,65.8,29.96,SW,221,0.0,0.0,87,0.00,CLR,FEW,0.00,WeatherDisplay:10.37,2013-06-08 13:24:00,
2013-06-08 08:29:00,70.3,65.6,29.96,NNE,27,0.0,0.0,85,0.00,CLR,FEW,0.00,WeatherDisplay:10.37,2013-06-08 13:29:00,
2013-06-08 08:34:00,71.0,65.9,29.96,NNE,26,0.0,0.0,84,0.00,CLR,FEW,0.00,WeatherDisplay:10.37,2013-06-08 13:34:00,
2013-06-08 08:39:00,71.4,65.6,29.96,NNE,26,0.0,0.0,82,0.00,CLR,FEW,0.00,WeatherDisplay:10.37,2013-06-08 13:39:00,
2013-06-08 08:44:00,71.7,65.9,29.97,North,5,0.0,0.0,82,0.00,CLR,FEW,0.00,WeatherDisplay:10.37,2013-06-08 13:44:00,
2013-06-08 08:49:00,71.9,66.1,29.97,North,360,0.0,0.1,82,0.00,CLR,FEW,0.00,WeatherDisplay:10.37,2013-06-08 13:49:00,
2013-06-08 08:54:00,72.1,66.3,29.96,North,360,0.0,0.0,82,0.00,CLR,FEW,0.00,WeatherDisplay:10.37,2013-06-08 13:54:00,
2013-06-08 08:59:00,72.4,66.6,29.97,WNW,303,0.0,0.0,82,0.00,CLR,FEW,0.00,WeatherDisplay:10.37,2013-06-08 13:59:00,
2013-06-08 09:04:00,72.7,66.2,29.97,NNW,336,0.0,0.0,80,0.00,CLR,FEW,0.00,WeatherDisplay:10.37,2013-06-08 14:04:00,
2013-06-08 09:09:00,73.1,66.9,29.97,NW,304,0.0,0.1,81,0.00,CLR,FEW,0.00,WeatherDisplay:10.37,2013-06-08 14:09:00,
2013-06-08 09:14:00,73.5,66.2,29.97,WNW,293,0.0,0.0,78,0.00,CLR,FEW,0.00,WeatherDisplay:10.37,2013-06-08 14:14:00,
2013-06-08 09:19:00,73.6,65.9,29.97,NNW,347,0.0,0.0,77,0.00,CLR,FEW,0.00,WeatherDisplay:10.37,2013-06-08 14:19:00,
2013-06-08 09:24:00,73.8,67.6,29.97,NW,316,0.0,0.0,81,0.00,CLR,FEW,0.00,WeatherDisplay:10.37,2013-06-08 14:24:00,
2013-06-08 09:29:00,73.8,66.1,29.97,North,355,0.0,0.0,77,0.00,CLR,FEW,0.00,WeatherDisplay:10.37,2013-06-08 14:29:00,
2013-06-08 09:34:00,74.0,66.3,29.97,North,355,1.2,0.0,77,0.00,CLR,FEW,0.00,WeatherDisplay:10.37,2013-06-08 14:34:00,
2013-06-08 09:40:00,74.3,65.9,29.97,West,262,1.2,0.0,75,0.00,CLR,FEW,0.00,WeatherDisplay:10.37,2013-06-08 14:40:00,
2013-06-08 09:45:00,74.7,65.9,29.97,SSW,209,0.0,0.0,74,0.00,CLR,FEW,0.00,WeatherDisplay:10.37,2013-06-08 14:45:00,
2013-06-08 09:50:00,75.1,65.5,29.97,NW,315,0.0,0.0,72,0.00,CLR,FEW,0.00,WeatherDisplay:10.37,2013-06-08 14:50:00,
2013-06-08 09:55:00,75.3,66.8,29.97,NNW,348,1.2,0.0,75,0.00,CLR,FEW,0.00,WeatherDisplay:10.37,2013-06-08 14:55:00,
2013-06-08 10:00:00,75.3,67.2,29.97,NW,304,1.2,1.2,76,0.00,CLR,FEW,0.00,WeatherDisplay:10.37,2013-06-08 15:00:00,
2013-06-08 10:05:00,75.1,66.6,29.97,NNW,347,1.2,1.2,75,0.00,CLR,FEW,0.00,WeatherDisplay:10.37,2013-06-08 15:05:00,
2013-06-08 10:10:00,75.1,65.9,29.97,SW,229,0.0,0.0,73,0.00,CLR,FEW,0.00,WeatherDisplay:10.37,2013-06-08 15:10:00,
2013-06-08 10:15:00,75.5,65.0,29.97,West,261,1.2,1.2,70,0.00,CLR,FEW,0.00,WeatherDisplay:10.37,2013-06-08 15:15:00,
2013-06-08 10:20:00,76.0,65.9,29.98,West,262,0.0,0.0,71,0.00,CLR,FEW,0.00,WeatherDisplay:10.37,2013-06-08 15:20:00,
2013-06-08 10:25:00,76.4,65.5,29.98,NNW,333,0.0,0.0,69,0.00,CLR,FEW,0.00,WeatherDisplay:10.37,2013-06-08 15:25:00,
2013-06-08 10:30:00,76.9,66.4,29.98,WNW,288,0.0,0.0,70,0.00,CLR,FEW,0.00,WeatherDisplay:10.37,2013-06-08 15:30:00,
2013-06-08 10:35:00,77.0,66.0,29.98,NNW,330,1.2,0.0,69,0.00,CLR,FEW,0.00,WeatherDisplay:10.37,2013-06-08 15:35:00,
2013-06-08 10:40:00,77.1,64.0,29.98,SW,225,0.0,0.0,64,0.00,CLR,FEW,0.00,WeatherDisplay:10.37,2013-06-08 15:40:00,
2013-06-08 10:45:00,77.2,65.0,29.98,NW,322,1.2,0.0,66,0.00,CLR,FEW,0.00,WeatherDisplay:10.37,2013-06-08 15:45:00,
2013-06-08 10:50:00,77.4,65.1,29.98,WNW,286,0.0,0.0,66,0.00,SCT,FEW,0.00,WeatherDisplay:10.37,2013-06-08 15:50:00,
2013-06-08 10:55:00,77.5,64.8,29.98,WNW,296,1.2,0.0,65,0.00,SCT,FEW,0.00,WeatherDisplay:10.37,2013-06-08 15:55:00,
2013-06-08 11:00:00,77.5,64.8,29.98,SW,236,0.0,0.0,65,0.00,SCT,FEW,0.00,WeatherDisplay:10.37,2013-06-08 16:00:00,
2013-06-08 11:05:00,78.0,64.8,29.98,West,265,0.0,0.0,64,0.00,FEW,,0.00,WeatherDisplay:10.37,2013-06-08 16:05:00,
2013-06-08 11:10:00,78.2,65.0,29.98,SW,230,0.0,0.0,64,0.00,FEW,,0.00,WeatherDisplay:10.37,2013-06-08 16:10:00,
2013-06-08 11:15:00,78.5,63.9,29.98,West,274,1.2,0.0,61,0.00,FEW,,0.00,WeatherDisplay:10.37,2013-06-08 16:15:00,
2013-06-08 11:20:00,78.7,65.5,29.98,West,275,0.0,0.0,64,0.00,FEW,,0.00,WeatherDisplay:10.37,2013-06-08 16:20:00,
2013-06-08 11:25:00,79.0,64.4,29.98,NNW,328,0.0,0.0,61,0.00,FEW,,0.00,WeatherDisplay:10.37,2013-06-08 16:25:00,
2013-06-08 11:30:00,78.9,63.4,29.98,SW,231,0.0,0.0,59,0.00,FEW,,0.00,WeatherDisplay:10.37,2013-06-08 16:30:00,
2013-06-08 11:35:00,78.5,63.5,29.98,WSW,254,1.2,0.0,60,0.00,FEW,,0.00,WeatherDisplay:10.37,2013-06-08 16:35:00,
2013-06-08 11:40:00,78.5,63.5,29.98,SW,220,1.2,1.2,60,0.00,FEW,,0.00,WeatherDisplay:10.37,2013-06-08 16:40:00,
2013-06-08 11:45:00,78.6,64.9,29.98,WNW,302,1.2,0.0,63,0.00,FEW,,0.00,WeatherDisplay:10.37,2013-06-08 16:45:00,
2013-06-08 11:50:00,78.9,63.8,29.98,West,259,0.0,0.0,60,0.00,FEW,,0.00,WeatherDisplay:10.37,2013-06-08 16:50:00,
2013-06-08 11:55:00,79.2,64.1,29.98,NW,315,0.0,0.0,60,0.00,FEW,,0.00,WeatherDisplay:10.37,2013-06-08 16:55:00,
2013-06-08 12:00:00,79.3,65.6,29.98,SSW,213,0.0,0.0,63,0.00,FEW,,0.00,WeatherDisplay:10.37,2013-06-08 17:00:00,
2013-06-08 12:05:00,79.1,63.1,29.98,SSW,207,1.2,1.2,58,0.00,SCT,FEW,0.00,WeatherDisplay:10.37,2013-06-08 17:05:00,
2013-06-08 12:10:00,79.5,66.3,29.98,WNW,298,1.2,1.2,64,0.00,SCT,FEW,0.00,WeatherDisplay:10.37,2013-06-08 17:10:00,
2013-06-08 12:15:00,79.7,63.6,29.98,NNW,329,0.0,0.0,58,0.00,SCT,FEW,0.00,WeatherDisplay:10.37,2013-06-08 17:15:00,
2013-06-08 12:20:00,79.1,63.5,29.98,NNW,332,0.0,0.0,59,0.00,SCT,FEW,0.00,WeatherDisplay:10.37,2013-06-08 17:20:00,
2013-06-08 12:25:00,78.7,65.0,29.98,West,261,0.0,0.0,63,0.00,SCT,FEW,0.00,WeatherDisplay:10.37,2013-06-08 17:25:00,
2013-06-08 12:30:00,78.5,62.0,29.98,NW,307,0.0,0.0,57,0.00,SCT,FEW,0.00,WeatherDisplay:10.37,2013-06-08 17:30:00,
2013-06-08 12:35:00,78.3,62.3,29.98,WNW,299,0.0,0.0,58,0.00,SCT,FEW,0.00,WeatherDisplay:10.37,2013-06-08 17:35:00,
2013-06-08 12:40:00,78.0,63.5,29.97,SSW,201,0.0,0.0,61,0.00,SCT,FEW,0.00,WeatherDisplay:10.37,2013-06-08 17:40:00,
2013-06-08 12:45:00,78.2,63.2,29.97,NE,50,0.0,0.0,60,0.00,SCT,FEW,0.00,WeatherDisplay:10.37,2013-06-08 17:45:00,
2013-06-08 12:50:00,78.9,63.8,29.97,SSE,158,0.0,0.0,60,0.00,SCT,FEW,0.00,WeatherDisplay:10.37,2013-06-08 17:50:00,
2013-06-08 12:55:00,79.6,65.4,29.96,WSW,240,0.0,0.0,62,0.00,SCT,FEW,0.00,WeatherDisplay:10.37,2013-06-08 17:55:00,
2013-06-08 13:00:00,79.4,63.3,29.96,NNE,19,1.2,0.0,58,0.00,SCT,FEW,0.00,WeatherDisplay:10.37,2013-06-08 18:00:00,
2013-06-08 13:05:00,79.6,64.5,29.96,SW,215,0.0,0.0,60,0.00,SCT,FEW,0.00,WeatherDisplay:10.37,2013-06-08 18:05:00,
2013-06-08 13:10:00,79.7,62.6,29.96,WSW,248,0.0,0.0,56,0.00,SCT,FEW,0.00,WeatherDisplay:10.37,2013-06-08 18:10:00,
2013-06-08 13:15:00,80.0,63.9,29.95,East,100,0.0,0.0,58,0.00,SCT,FEW,0.00,WeatherDisplay:10.37,2013-06-08 18:15:00,
2013-06-08 13:20:00,80.3,64.2,29.95,ENE,71,0.0,0.0,58,0.00,SCT,FEW,0.00,WeatherDisplay:10.37,2013-06-08 18:20:00,
2013-06-08 13:25:00,80.2,61.5,29.95,East,80,0.0,0.0,53,0.00,SCT,FEW,0.00,WeatherDisplay:10.37,2013-06-08 18:25:00,
2013-06-08 13:30:00,80.0,63.9,29.95,ESE,123,0.0,0.0,58,0.00,SCT,FEW,0.00,WeatherDisplay:10.37,2013-06-08 18:30:00,
2013-06-08 13:35:00,79.9,61.8,29.95,ENE,61,0.0,0.0,54,0.00,SCT,FEW,0.00,WeatherDisplay:10.37,2013-06-08 18:35:00,
2013-06-08 13:40:00,79.5,62.4,29.95,North,5,0.0,0.0,56,0.00,SCT,FEW,0.00,WeatherDisplay:10.37,2013-06-08 18:40:00,
2013-06-08 13:45:00,79.7,60.5,29.95,SSE,150,0.0,0.0,52,0.00,SCT,FEW,0.00,WeatherDisplay:10.37,2013-06-08 18:45:00,
2013-06-08 13:50:00,79.9,62.3,29.96,WNW,290,0.0,0.0,55,0.00,SCT,FEW,0.00,WeatherDisplay:10.37,2013-06-08 18:50:00,
2013-06-08 13:55:00,79.4,63.3,29.95,WNW,294,0.0,0.0,58,0.00,SCT,FEW,0.00,WeatherDisplay:10.37,2013-06-08 18:55:00,
2013-06-08 14:00:00,79.6,64.5,29.95,NW,318,0.0,0.0,60,0.00,SCT,FEW,0.00,WeatherDisplay:10.37,2013-06-08 19:00:00,
2013-06-08 14:05:00,80.3,65.1,29.95,NNW,344,0.0,0.0,60,0.00,FEW,,0.00,WeatherDisplay:10.37,2013-06-08 19:05:00,
2013-06-08 14:10:00,80.8,61.5,29.95,East,93,0.0,0.0,52,0.00,FEW,,0.00,WeatherDisplay:10.37,2013-06-08 19:10:00,
2013-06-08 14:15:00,80.3,58.8,29.95,South,172,0.0,0.0,48,0.00,FEW,,0.00,WeatherDisplay:10.37,2013-06-08 19:15:00,
2013-06-08 14:20:00,80.0,62.9,29.95,South,172,0.0,0.0,56,0.00,FEW,,0.00,WeatherDisplay:10.37,2013-06-08 19:20:00,
2013-06-08 14:25:00,79.7,63.6,29.95,South,172,0.0,0.0,58,0.00,FEW,,0.00,WeatherDisplay:10.37,2013-06-08 19:25:00,
2013-06-08 14:30:00,80.1,61.4,29.95,SW,217,1.2,0.0,53,0.00,FEW,,0.00,WeatherDisplay:10.37,2013-06-08 19:30:00,
2013-06-08 14:35:00,80.6,62.4,29.95,WSW,238,1.2,0.0,54,0.00,FEW,,0.00,WeatherDisplay:10.37,2013-06-08 19:35:00,
2013-06-08 14:40:00,80.3,61.1,29.95,SSW,204,1.2,0.0,52,0.00,FEW,,0.00,WeatherDisplay:10.37,2013-06-08 19:40:00,
2013-06-08 14:45:00,80.1,61.4,29.95,WNW,294,0.0,0.0,53,0.00,FEW,,0.00,WeatherDisplay:10.37,2013-06-08 19:45:00,
2013-06-08 14:50:00,80.1,62.0,29.95,SSW,209,0.0,0.0,54,0.00,FEW,,0.00,WeatherDisplay:10.37,2013-06-08 19:50:00,
2013-06-08 14:55:00,80.5,64.4,29.95,SSW,196,0.0,0.0,58,0.00,FEW,,0.00,WeatherDisplay:10.37,2013-06-08 19:55:00,
2013-06-08 15:00:00,80.7,62.0,29.95,NNW,334,0.0,0.0,53,0.00,FEW,,0.00,WeatherDisplay:10.37,2013-06-08 20:00:00,
2013-06-08 15:05:00,80.0,64.9,29.95,WSW,257,0.0,0.0,60,0.00,CLR,FEW,0.00,WeatherDisplay:10.37,2013-06-08 20:05:00,
2013-06-08 15:10:00,79.6,65.0,29.95,WSW,257,0.0,0.0,61,0.00,CLR,FEW,0.00,WeatherDisplay:10.37,2013-06-08 20:10:00,
2013-06-08 15:15:00,79.9,61.8,29.95,SSW,201,0.0,0.0,54,0.00,CLR,FEW,0.00,WeatherDisplay:10.37,2013-06-08 20:15:00,
2013-06-08 15:20:00,80.5,61.8,29.95,SSW,198,0.0,0.0,53,0.00,CLR,FEW,0.00,WeatherDisplay:10.37,2013-06-08 20:20:00,
2013-06-08 15:25:00,80.9,62.2,29.95,West,262,0.0,0.0,53,0.00,CLR,FEW,0.00,WeatherDisplay:10.37,2013-06-08 20:25:00,
2013-06-08 15:31:00,81.7,61.8,29.95,SSW,209,0.0,0.0,51,0.00,CLR,FEW,0.00,WeatherDisplay:10.37,2013-06-08 20:31:00,
2013-06-08 15:36:00,82.1,62.7,29.95,NW,311,0.0,0.0,52,0.00,CLR,FEW,0.00,WeatherDisplay:10.37,2013-06-08 20:36:00,
2013-06-08 15:41:00,81.9,61.4,29.95,West,273,0.0,0.0,50,0.00,CLR,FEW,0.00,WeatherDisplay:10.37,2013-06-08 20:41:00,
2013-06-08 15:46:00,81.1,61.8,29.95,WSW,244,1.2,1.2,52,0.00,CLR,FEW,0.00,WeatherDisplay:10.37,2013-06-08 20:46:00,
2013-06-08 15:51:00,80.3,63.2,29.95,SW,232,0.0,0.0,56,0.00,CLR,FEW,0.00,WeatherDisplay:10.37,2013-06-08 20:51:00,
2013-06-08 15:56:00,79.7,63.1,29.95,SSW,202,0.0,0.0,57,0.00,CLR,FEW,0.00,WeatherDisplay:10.37,2013-06-08 20:56:00,
2013-06-08 16:01:00,79.4,63.3,29.95,NNW,328,1.2,0.0,58,0.00,CLR,FEW,0.00,WeatherDisplay:10.37,2013-06-08 21:01:00,
2013-06-08 16:06:00,79.9,64.3,29.95,WSW,240,0.0,0.0,59,0.00,CLR,FEW,0.00,WeatherDisplay:10.37,2013-06-08 21:06:00,
2013-06-08 16:11:00,80.4,62.8,29.95,SW,225,0.0,0.0,55,0.00,CLR,FEW,0.00,WeatherDisplay:10.37,2013-06-08 21:11:00,
2013-06-08 16:16:00,80.4,62.2,29.95,SSW,210,2.3,2.3,54,0.00,CLR,FEW,0.00,WeatherDisplay:10.37,2013-06-08 21:16:00,
2013-06-08 16:21:00,80.2,63.1,29.95,WSW,255,0.0,0.0,56,0.00,CLR,FEW,0.00,WeatherDisplay:10.37,2013-06-08 21:21:00,
2013-06-08 16:26:00,80.0,64.9,29.95,WSW,255,0.0,0.0,60,0.00,CLR,FEW,0.00,WeatherDisplay:10.37,2013-06-08 21:26:00,
2013-06-08 16:31:00,80.0,62.4,29.95,WSW,246,0.0,0.0,55,0.00,CLR,FEW,0.00,WeatherDisplay:10.37,2013-06-08 21:31:00,
2013-06-08 16:36:00,80.0,63.9,29.95,SW,219,0.0,0.0,58,0.00,CLR,FEW,0.00,WeatherDisplay:10.37,2013-06-08 21:36:00,
2013-06-08 16:41:00,79.8,65.6,29.95,West,275,0.0,0.0,62,0.00,CLR,FEW,0.00,WeatherDisplay:10.37,2013-06-08 21:41:00,
2013-06-08 16:46:00,80.2,64.1,29.95,West,261,1.2,0.0,58,0.00,CLR,FEW,0.00,WeatherDisplay:10.37,2013-06-08 21:46:00,
2013-06-08 16:51:00,80.7,63.5,29.95,SSW,200,0.0,0.0,56,0.00,CLR,FEW,0.00,WeatherDisplay:10.37,2013-06-08 21:51:00,
2013-06-08 16:56:00,81.0,64.3,29.95,SW,221,0.0,0.0,57,0.00,CLR,FEW,0.00,WeatherDisplay:10.37,2013-06-08 21:56:00,
2013-06-08 17:01:00,81.2,64.5,29.95,South,171,1.2,0.0,57,0.00,SCT,FEW,0.00,WeatherDisplay:10.37,2013-06-08 22:01:00,
2013-06-08 17:06:00,81.3,62.5,29.95,WSW,253,0.0,0.0,53,0.00,SCT,FEW,0.00,WeatherDisplay:10.37,2013-06-08 22:06:00,
2013-06-08 17:11:00,81.5,62.7,29.95,SSW,208,0.0,0.0,53,0.00,SCT,FEW,0.00,WeatherDisplay:10.37,2013-06-08 22:11:00,
2013-06-08 17:16:00,81.7,62.4,29.95,SW,227,0.0,0.0,52,0.00,SCT,FEW,0.00,WeatherDisplay:10.37,2013-06-08 22:16:00,
2013-06-08 17:21:00,81.7,62.9,29.95,SSW,196,0.0,0.0,53,0.00,SCT,FEW,0.00,WeatherDisplay:10.37,2013-06-08 22:21:00,
2013-06-08 17:26:00,81.1,64.4,29.95,South,178,0.0,0.0,57,0.00,SCT,FEW,0.00,WeatherDisplay:10.37,2013-06-08 22:26:00,
2013-06-08 17:31:00,80.2,63.6,29.95,WSW,245,0.0,0.0,57,0.00,SCT,FEW,0.00,WeatherDisplay:10.37,2013-06-08 22:31:00,
2013-06-08 17:37:00,79.7,63.1,29.95,SSW,210,0.0,0.0,57,0.00,SCT,FEW,0.00,WeatherDisplay:10.37,2013-06-08 22:37:00,
2013-06-08 17:42:00,79.9,62.8,29.95,SSW,213,0.0,0.0,56,0.00,SCT,FEW,0.00,WeatherDisplay:10.37,2013-06-08 22:42:00,
2013-06-08 17:47:00,80.4,64.8,29.95,SSW,209,0.0,0.0,59,0.00,SCT,FEW,0.00,WeatherDisplay:10.37,2013-06-08 22:47:00,
2013-06-08 17:52:00,80.9,64.2,29.95,SSE,165,0.0,0.0,57,0.00,SCT,FEW,0.00,WeatherDisplay:10.37,2013-06-08 22:52:00,
2013-06-08 17:57:00,81.2,65.0,29.95,SSE,165,0.0,0.0,58,0.00,SCT,FEW,0.00,WeatherDisplay:10.37,2013-06-08 22:57:00,
2013-06-08 18:02:00,81.1,66.4,29.95,SSE,165,0.0,0.0,61,0.00,CLR,FEW,0.00,WeatherDisplay:10.37,2013-06-08 23:02:00,
2013-06-08 18:07:00,81.0,63.8,29.95,SSE,165,0.0,0.0,56,0.00,CLR,FEW,0.00,WeatherDisplay:10.37,2013-06-08 23:07:00,
2013-06-08 18:12:00,80.6,65.9,29.95,SSE,165,0.0,0.0,61,0.00,CLR,FEW,0.00,WeatherDisplay:10.37,2013-06-08 23:12:00,
2013-06-08 18:17:00,80.4,65.2,29.95,SSE,165,0.0,0.0,60,0.00,CLR,FEW,0.00,WeatherDisplay:10.37,2013-06-08 23:17:00,
2013-06-08 18:22:00,80.2,63.6,29.95,SSE,165,0.0,0.0,57,0.00,CLR,FEW,0.00,WeatherDisplay:10.37,2013-06-08 23:22:00,
2013-06-08 18:27:00,79.6,63.5,29.95,SW,236,0.0,0.0,58,0.00,CLR,FEW,0.00,WeatherDisplay:10.37,2013-06-08 23:27:00,
2013-06-08 18:32:00,78.9,62.9,29.95,SW,235,0.0,0.0,58,0.00,CLR,FEW,0.00,WeatherDisplay:10.37,2013-06-08 23:32:00,
2013-06-08 18:37:00,78.3,63.3,29.95,SW,234,0.0,0.0,60,0.00,CLR,FEW,0.00,WeatherDisplay:10.37,2013-06-08 23:37:00,
2013-06-08 18:42:00,77.6,64.0,29.95,SW,234,0.0,0.0,63,0.00,CLR,FEW,0.00,WeatherDisplay:10.37,2013-06-08 23:42:00,
2013-06-08 18:47:00,76.9,64.2,29.95,SW,234,0.0,0.0,65,0.00,CLR,FEW,0.00,WeatherDisplay:10.37,2013-06-08 23:47:00,
2013-06-08 18:52:00,76.2,64.4,29.95,SW,234,0.0,0.0,67,0.00,CLR,FEW,0.00,WeatherDisplay:10.37,2013-06-08 23:52:00,
2013-06-08 18:57:00,75.5,64.2,29.95,SW,234,0.0,0.0,68,0.00,CLR,FEW,0.00,WeatherDisplay:10.37,2013-06-08 23:57:00,
2013-06-08 19:02:00,75.0,64.1,29.95,SW,234,0.0,0.0,69,0.00,CLR,FEW,0.00,WeatherDisplay:10.37,2013-06-09 00:02:00,
2013-06-08 19:07:00,74.6,64.6,29.95,SW,234,0.0,0.0,71,0.00,CLR,FEW,0.00,WeatherDisplay:10.37,2013-06-09 00:07:00,
2013-06-08 19:12:00,74.4,64.0,29.95,SW,234,0.0,0.0,70,0.00,CLR,FEW,0.00,WeatherDisplay:10.37,2013-06-09 00:12:00,
2013-06-08 19:17:00,74.1,63.7,29.95,SW,234,0.0,0.0,70,0.00,CLR,FEW,0.00,WeatherDisplay:10.37,2013-06-09 00:17:00,
2013-06-08 19:22:00,74.0,64.8,29.95,SW,234,0.0,0.0,73,0.00,CLR,FEW,0.00,WeatherDisplay:10.37,2013-06-09 00:22:00,
2013-06-08 19:27:00,73.8,65.0,29.95,SW,234,0.0,0.0,74,0.00,CLR,FEW,0.00,WeatherDisplay:10.37,2013-06-09 00:27:00,
2013-06-08 19:32:00,73.7,64.5,29.96,SW,234,0.0,0.0,73,0.00,CLR,FEW,0.00,WeatherDisplay:10.37,2013-06-09 00:32:00,
2013-06-08 19:37:00,73.5,65.1,29.96,SW,234,0.0,0.0,75,0.00,BKN,FEW,0.00,WeatherDisplay:10.37,2013-06-09 00:37:00,
2013-06-08 19:42:00,73.2,65.6,29.96,SW,234,0.0,0.0,77,0.00,BKN,FEW,0.00,WeatherDisplay:10.37,2013-06-09 00:42:00,
2013-06-08 19:47:00,72.8,65.5,29.96,SW,234,0.0,0.0,78,0.00,BKN,FEW,0.00,WeatherDisplay:10.37,2013-06-09 00:47:00,
2013-06-08 19:52:00,72.5,65.6,29.96,SW,234,0.0,0.0,79,0.00,BKN,FEW,0.00,WeatherDisplay:10.37,2013-06-09 00:52:00,
2013-06-08 19:57:00,72.0,65.5,29.97,SW,234,0.0,0.0,80,0.00,BKN,FEW,0.00,WeatherDisplay:10.37,2013-06-09 00:57:00,
2013-06-08 20:02:00,71.4,65.3,29.97,SW,234,0.0,0.0,81,0.00,FEW,,0.00,WeatherDisplay:10.37,2013-06-09 01:02:00,
2013-06-08 20:07:00,71.0,65.2,29.97,SW,234,0.0,0.0,82,0.00,FEW,,0.00,WeatherDisplay:10.37,2013-06-09 01:07:00,
2013-06-08 20:12:00,70.7,65.6,29.97,SW,234,0.0,0.0,84,0.00,FEW,,0.00,WeatherDisplay:10.37,2013-06-09 01:12:00,
2013-06-08 20:17:00,70.6,65.5,29.96,SW,234,0.0,0.0,84,0.00,FEW,,0.00,WeatherDisplay:10.37,2013-06-09 01:17:00,
2013-06-08 20:22:00,70.4,65.7,29.97,SW,234,0.0,0.0,85,0.00,FEW,,0.00,WeatherDisplay:10.37,2013-06-09 01:22:00,
2013-06-08 20:27:00,70.1,65.4,29.97,SW,234,0.0,0.0,85,0.00,FEW,,0.00,WeatherDisplay:10.37,2013-06-09 01:27:00,
2013-06-08 20:32:00,69.9,65.5,29.97,SW,234,0.0,0.0,86,0.00,FEW,,0.00,WeatherDisplay:10.37,2013-06-09 01:32:00,
2013-06-08 20:37:00,69.8,65.4,29.97,SW,234,0.0,0.0,86,0.00,FEW,,0.00,WeatherDisplay:10.37,2013-06-09 01:37:00,
2013-06-08 20:42:00,69.7,65.3,29.97,SW,234,0.0,0.0,86,0.00,FEW,,0.00,WeatherDisplay:10.37,2013-06-09 01:42:00,
2013-06-08 20:47:00,69.5,65.5,29.97,SW,234,0.0,0.0,87,0.00,FEW,,0.00,WeatherDisplay:10.37,2013-06-09 01:47:00,
2013-06-08 20:52:00,69.3,65.3,29.97,SW,234,0.0,0.0,87,0.00,FEW,,0.00,WeatherDisplay:10.37,2013-06-09 01:52:00,
2013-06-08 20:57:00,69.2,65.2,29.97,SW,234,0.0,0.0,87,0.00,FEW,,0.00,WeatherDisplay:10.37,2013-06-09 01:57:00,
2013-06-08 21:02:00,69.0,65.3,29.98,SW,234,0.0,0.0,88,0.00,CLR,FEW,0.00,WeatherDisplay:10.37,2013-06-09 02:02:00,
2013-06-08 21:07:00,68.9,65.2,29.98,SW,234,0.0,0.0,88,0.00,CLR,FEW,0.00,WeatherDisplay:10.37,2013-06-09 02:07:00,
2013-06-08 21:12:00,68.7,65.0,29.98,SW,234,0.0,0.0,88,0.00,CLR,FEW,0.00,WeatherDisplay:10.37,2013-06-09 02:12:00,
2013-06-08 21:18:00,68.4,65.0,29.98,SW,234,0.0,0.0,89,0.00,CLR,FEW,0.00,WeatherDisplay:10.37,2013-06-09 02:18:00,
2013-06-08 21:23:00,68.1,65.1,29.98,SW,234,0.0,0.0,90,0.00,CLR,FEW,0.00,WeatherDisplay:10.37,2013-06-09 02:23:00,
2013-06-08 21:28:00,67.8,64.8,29.99,SW,234,0.0,0.0,90,0.00,CLR,FEW,0.00,WeatherDisplay:10.37,2013-06-09 02:28:00,
2013-06-08 21:33:00,67.7,64.7,29.99,SW,234,0.0,0.0,90,0.00,CLR,FEW,0.00,WeatherDisplay:10.37,2013-06-09 02:33:00,
2013-06-08 21:38:00,67.5,64.5,29.99,SW,234,0.0,0.0,90,0.00,CLR,FEW,0.00,WeatherDisplay:10.37,2013-06-09 02:38:00,
2013-06-08 21:43:00,67.3,64.3,29.99,SW,234,0.0,0.0,90,0.00,CLR,FEW,0.00,WeatherDisplay:10.37,2013-06-09 02:43:00,
2013-06-08 21:48:00,67.0,64.3,29.99,SW,234,0.0,0.0,91,0.00,CLR,FEW,0.00,WeatherDisplay:10.37,2013-06-09 02:48:00,
2013-06-08 21:53:00,66.8,64.1,29.99,SW,234,0.0,0.0,91,0.00,CLR,FEW,0.00,WeatherDisplay:10.37,2013-06-09 02:53:00,
2013-06-08 21:58:00,66.6,63.9,29.99,SW,234,0.0,0.0,91,0.00,CLR,FEW,0.00,WeatherDisplay:10.37,2013-06-09 02:58:00,
2013-06-08 22:03:00,66.4,64.0,29.99,SW,234,0.0,0.0,92,0.00,BKN,FEW,0.00,WeatherDisplay:10.37,2013-06-09 03:03:00,
2013-06-08 22:08:00,66.2,63.8,29.99,SW,234,0.0,0.0,92,0.00,BKN,FEW,0.00,WeatherDisplay:10.37,2013-06-09 03:08:00,
2013-06-08 22:13:00,66.1,63.7,29.99,SW,234,0.0,0.0,92,0.00,BKN,FEW,0.00,WeatherDisplay:10.37,2013-06-09 03:13:00,
2013-06-08 22:18:00,66.0,63.6,29.99,SW,234,0.0,0.0,92,0.00,BKN,FEW,0.00,WeatherDisplay:10.37,2013-06-09 03:18:00,
2013-06-08 22:23:00,65.8,63.4,29.99,SW,234,0.0,0.0,92,0.00,BKN,FEW,0.00,WeatherDisplay:10.37,2013-06-09 03:23:00,
2013-06-08 22:28:00,65.8,63.7,29.99,SW,234,0.0,0.0,93,0.00,BKN,FEW,0.00,WeatherDisplay:10.37,2013-06-09 03:28:00,
2013-06-08 22:33:00,65.7,63.3,29.99,SW,234,0.0,0.0,92,0.00,BKN,FEW,0.00,WeatherDisplay:10.37,2013-06-09 03:33:00,
2013-06-08 22:38:00,65.6,63.2,29.99,SW,234,0.0,0.0,92,0.00,BKN,FEW,0.00,WeatherDisplay:10.37,2013-06-09 03:38:00,
2013-06-08 22:43:00,65.5,63.1,29.99,SW,234,0.0,0.0,92,0.00,BKN,FEW,0.00,WeatherDisplay:10.37,2013-06-09 03:43:00,
2013-06-08 22:48:00,65.3,63.2,29.98,SW,234,0.0,0.0,93,0.00,BKN,FEW,0.00,WeatherDisplay:10.37,2013-06-09 03:48:00,
2013-06-08 22:53:00,65.2,63.1,29.98,SW,234,0.0,0.0,93,0.00,BKN,FEW,0.00,WeatherDisplay:10.37,2013-06-09 03:53:00,
2013-06-08 22:58:00,65.0,62.9,29.99,SW,234,0.0,0.0,93,0.00,BKN,FEW,0.00,WeatherDisplay:10.37,2013-06-09 03:58:00,
2013-06-08 23:01:00,65.0,62.9,29.99,SW,234,0.0,0.0,93,0.00,FEW,,0.00,WeatherDisplay:10.37,2013-06-09 04:01:00,
2013-06-08 23:02:00,65.0,62.9,29.99,SW,234,0.0,0.0,93,0.00,FEW,,0.00,WeatherDisplay:10.37,2013-06-09 04:02:00,
2013-06-08 23:07:00,64.9,62.8,29.99,SW,234,0.0,0.0,93,0.00,FEW,,0.00,WeatherDisplay:10.37,2013-06-09 04:07:00,
2013-06-08 23:12:00,64.8,62.7,29.99,SW,234,0.0,0.0,93,0.00,FEW,,0.00,WeatherDisplay:10.37,2013-06-09 04:12:00,
2013-06-08 23:17:00,64.5,62.4,29.99,SW,234,0.0,0.0,93,0.00,FEW,,0.00,WeatherDisplay:10.37,2013-06-09 04:17:00,
2013-06-08 23:22:00,64.3,62.2,29.99,SW,234,0.0,0.0,93,0.00,FEW,,0.00,WeatherDisplay:10.37,2013-06-09 04:22:00,
2013-06-08 23:27:00,64.2,62.4,29.99,SW,234,0.0,0.0,94,0.00,FEW,,0.00,WeatherDisplay:10.37,2013-06-09 04:27:00,
2013-06-08 23:32:00,64.2,62.4,29.99,SW,234,0.0,0.0,94,0.00,FEW,,0.00,WeatherDisplay:10.37,2013-06-09 04:32:00,
2013-06-08 23:37:00,64.1,62.3,29.99,SW,234,0.0,0.0,94,0.00,FEW,,0.00,WeatherDisplay:10.37,2013-06-09 04:37:00,
2013-06-08 23:42:00,64.0,62.2,30.00,SW,234,0.0,0.0,94,0.00,FEW,,0.00,WeatherDisplay:10.37,2013-06-09 04:42:00,
2013-06-08 23:47:00,64.0,62.2,30.00,SW,234,0.0,0.0,94,0.00,FEW,,0.00,WeatherDisplay:10.37,2013-06-09 04:47:00,
2013-06-08 23:52:00,63.9,62.1,30.00,SW,234,0.0,0.0,94,0.00,FEW,,0.00,WeatherDisplay:10.37,2013-06-09 04:52:00,
2013-06-08 23:57:00,63.8,62.0,30.00,SW,234,0.0,0.0,94,0.00,FEW,,0.00,WeatherDisplay:10.37,2013-06-09 04:57:00,